sensor_id;sensor_type;location;lat;lon;timestamp;P1;durP1;ratioP1;P2;durP2;ratioP2
34952;SDS011;21164;54.378;10.202;2022-07-06T00:00:37;7.50;;;1.52;;
34952;SDS011;21164;54.378;10.202;2022-07-06T00:03:02;8.43;;;1.60;;
34952;SDS011;21164;54.378;10.202;2022-07-06T00:05:28;7.53;;;1.70;;
34952;SDS011;21164;54.378;10.202;2022-07-06T00:07:54;8.00;;;2.50;;
34952;SDS011;21164;54.378;10.202;2022-07-06T00:10:19;6.72;;;1.92;;
34952;SDS011;21164;54.378;10.202;2022-07-06T00:12:45;5.68;;;1.92;;
34952;SDS011;21164;54.378;10.202;2022-07-06T00:15:11;7.30;;;1.73;;
34952;SDS011;21164;54.378;10.202;2022-07-06T00:17:36;5.85;;;1.90;;
34952;SDS011;21164;54.378;10.202;2022-07-06T00:20:02;6.75;;;2.20;;
34952;SDS011;21164;54.378;10.202;2022-07-06T00:22:28;5.90;;;1.80;;
34952;SDS011;21164;54.378;10.202;2022-07-06T00:24:53;4.75;;;2.00;;
34952;SDS011;21164;54.378;10.202;2022-07-06T00:27:19;5.65;;;1.77;;
34952;SDS011;21164;54.378;10.202;2022-07-06T00:29:45;8.30;;;1.98;;
34952;SDS011;21164;54.378;10.202;2022-07-06T00:32:11;3.88;;;1.55;;
34952;SDS011;21164;54.378;10.202;2022-07-06T00:37:04;7.63;;;1.58;;
34952;SDS011;21164;54.378;10.202;2022-07-06T00:39:31;5.47;;;1.50;;
34952;SDS011;21164;54.378;10.202;2022-07-06T00:41:57;4.85;;;1.85;;
34952;SDS011;21164;54.378;10.202;2022-07-06T00:44:23;5.13;;;1.67;;
34952;SDS011;21164;54.378;10.202;2022-07-06T00:46:49;5.20;;;1.38;;
34952;SDS011;21164;54.378;10.202;2022-07-06T00:49:14;3.65;;;1.13;;
34952;SDS011;21164;54.378;10.202;2022-07-06T00:51:58;6.82;;;1.70;;
34952;SDS011;21164;54.378;10.202;2022-07-06T00:54:25;4.72;;;1.42;;
34952;SDS011;21164;54.378;10.202;2022-07-06T00:56:55;5.55;;;1.55;;
34952;SDS011;21164;54.378;10.202;2022-07-06T00:59:22;7.57;;;1.63;;
34952;SDS011;21164;54.378;10.202;2022-07-06T01:01:48;6.03;;;1.55;;
34952;SDS011;21164;54.378;10.202;2022-07-06T01:04:14;7.28;;;1.70;;
34952;SDS011;21164;54.378;10.202;2022-07-06T01:06:40;6.80;;;2.42;;
34952;SDS011;21164;54.378;10.202;2022-07-06T01:11:31;6.10;;;1.48;;
34952;SDS011;21164;54.378;10.202;2022-07-06T01:13:57;5.35;;;1.45;;
34952;SDS011;21164;54.378;10.202;2022-07-06T01:16:25;4.15;;;1.20;;
34952;SDS011;21164;54.378;10.202;2022-07-06T01:18:51;4.70;;;1.40;;
34952;SDS011;21164;54.378;10.202;2022-07-06T01:21:17;6.60;;;1.45;;
34952;SDS011;21164;54.378;10.202;2022-07-06T01:23:43;2.42;;;1.00;;
34952;SDS011;21164;54.378;10.202;2022-07-06T01:26:13;6.00;;;1.20;;
34952;SDS011;21164;54.378;10.202;2022-07-06T01:28:44;7.63;;;1.40;;
34952;SDS011;21164;54.378;10.202;2022-07-06T01:31:20;7.60;;;1.50;;
34952;SDS011;21164;54.378;10.202;2022-07-06T01:33:50;4.57;;;1.27;;
34952;SDS011;21164;54.378;10.202;2022-07-06T01:36:18;7.57;;;1.52;;
34952;SDS011;21164;54.378;10.202;2022-07-06T01:38:51;4.68;;;1.23;;
34952;SDS011;21164;54.378;10.202;2022-07-06T01:41:23;6.38;;;1.55;;
34952;SDS011;21164;54.378;10.202;2022-07-06T01:43:49;3.03;;;1.25;;
34952;SDS011;21164;54.378;10.202;2022-07-06T01:46:14;4.40;;;1.30;;
34952;SDS011;21164;54.378;10.202;2022-07-06T01:51:06;8.38;;;1.77;;
34952;SDS011;21164;54.378;10.202;2022-07-06T01:53:32;8.57;;;1.45;;
34952;SDS011;21164;54.378;10.202;2022-07-06T01:55:57;6.05;;;1.63;;
34952;SDS011;21164;54.378;10.202;2022-07-06T01:58:23;3.55;;;1.23;;
34952;SDS011;21164;54.378;10.202;2022-07-06T02:00:49;6.95;;;1.40;;
34952;SDS011;21164;54.378;10.202;2022-07-06T02:03:14;8.88;;;1.83;;
34952;SDS011;21164;54.378;10.202;2022-07-06T02:05:40;5.35;;;1.60;;
34952;SDS011;21164;54.378;10.202;2022-07-06T02:08:06;3.45;;;1.30;;
34952;SDS011;21164;54.378;10.202;2022-07-06T02:10:31;3.53;;;1.20;;
34952;SDS011;21164;54.378;10.202;2022-07-06T02:12:57;4.80;;;1.55;;
34952;SDS011;21164;54.378;10.202;2022-07-06T02:15:22;6.10;;;1.50;;
34952;SDS011;21164;54.378;10.202;2022-07-06T02:17:48;5.97;;;1.40;;
34952;SDS011;21164;54.378;10.202;2022-07-06T02:20:14;5.15;;;1.40;;
34952;SDS011;21164;54.378;10.202;2022-07-06T02:22:39;4.43;;;1.20;;
34952;SDS011;21164;54.378;10.202;2022-07-06T02:25:05;6.95;;;1.50;;
34952;SDS011;21164;54.378;10.202;2022-07-06T02:27:31;3.42;;;1.20;;
34952;SDS011;21164;54.378;10.202;2022-07-06T02:29:57;7.43;;;1.23;;
34952;SDS011;21164;54.378;10.202;2022-07-06T02:32:22;6.32;;;1.17;;
34952;SDS011;21164;54.378;10.202;2022-07-06T02:34:48;6.30;;;1.30;;
34952;SDS011;21164;54.378;10.202;2022-07-06T02:37:13;5.13;;;1.50;;
34952;SDS011;21164;54.378;10.202;2022-07-06T02:39:39;6.25;;;1.42;;
34952;SDS011;21164;54.378;10.202;2022-07-06T02:42:05;3.35;;;1.00;;
34952;SDS011;21164;54.378;10.202;2022-07-06T02:44:30;5.55;;;1.33;;
34952;SDS011;21164;54.378;10.202;2022-07-06T02:46:56;5.35;;;1.45;;
34952;SDS011;21164;54.378;10.202;2022-07-06T02:49:22;6.82;;;1.42;;
34952;SDS011;21164;54.378;10.202;2022-07-06T02:51:47;5.03;;;1.52;;
34952;SDS011;21164;54.378;10.202;2022-07-06T02:54:13;4.78;;;1.30;;
34952;SDS011;21164;54.378;10.202;2022-07-06T02:56:38;4.03;;;1.23;;
34952;SDS011;21164;54.378;10.202;2022-07-06T02:59:04;5.50;;;1.30;;
34952;SDS011;21164;54.378;10.202;2022-07-06T03:01:29;5.70;;;1.77;;
34952;SDS011;21164;54.378;10.202;2022-07-06T03:03:55;6.90;;;1.83;;
34952;SDS011;21164;54.378;10.202;2022-07-06T03:06:21;6.50;;;1.52;;
34952;SDS011;21164;54.378;10.202;2022-07-06T03:08:46;5.07;;;1.13;;
34952;SDS011;21164;54.378;10.202;2022-07-06T03:11:12;3.75;;;1.30;;
34952;SDS011;21164;54.378;10.202;2022-07-06T03:13:37;6.38;;;1.42;;
34952;SDS011;21164;54.378;10.202;2022-07-06T03:16:03;4.57;;;1.95;;
34952;SDS011;21164;54.378;10.202;2022-07-06T03:18:28;3.85;;;1.30;;
34952;SDS011;21164;54.378;10.202;2022-07-06T03:20:54;4.20;;;1.30;;
34952;SDS011;21164;54.378;10.202;2022-07-06T03:23:20;3.25;;;1.15;;
34952;SDS011;21164;54.378;10.202;2022-07-06T03:25:46;4.15;;;1.10;;
34952;SDS011;21164;54.378;10.202;2022-07-06T03:28:14;7.28;;;1.65;;
34952;SDS011;21164;54.378;10.202;2022-07-06T03:30:39;4.53;;;1.60;;
34952;SDS011;21164;54.378;10.202;2022-07-06T03:33:05;4.22;;;1.33;;
34952;SDS011;21164;54.378;10.202;2022-07-06T03:35:31;4.88;;;1.23;;
34952;SDS011;21164;54.378;10.202;2022-07-06T03:37:56;5.88;;;1.48;;
34952;SDS011;21164;54.378;10.202;2022-07-06T03:40:22;4.18;;;1.75;;
34952;SDS011;21164;54.378;10.202;2022-07-06T03:42:47;5.25;;;1.40;;
34952;SDS011;21164;54.378;10.202;2022-07-06T03:45:13;4.25;;;1.23;;
34952;SDS011;21164;54.378;10.202;2022-07-06T03:47:39;4.18;;;1.30;;
34952;SDS011;21164;54.378;10.202;2022-07-06T03:50:07;5.22;;;1.48;;
34952;SDS011;21164;54.378;10.202;2022-07-06T03:52:34;4.07;;;1.30;;
34952;SDS011;21164;54.378;10.202;2022-07-06T03:55:00;3.25;;;1.10;;
34952;SDS011;21164;54.378;10.202;2022-07-06T03:57:26;5.40;;;1.17;;
34952;SDS011;21164;54.378;10.202;2022-07-06T03:59:51;5.95;;;1.40;;
34952;SDS011;21164;54.378;10.202;2022-07-06T04:02:17;6.90;;;1.25;;
34952;SDS011;21164;54.378;10.202;2022-07-06T04:04:42;7.18;;;1.48;;
34952;SDS011;21164;54.378;10.202;2022-07-06T04:07:08;6.03;;;1.17;;
34952;SDS011;21164;54.378;10.202;2022-07-06T04:09:33;4.75;;;1.23;;
34952;SDS011;21164;54.378;10.202;2022-07-06T04:11:59;6.50;;;1.67;;
34952;SDS011;21164;54.378;10.202;2022-07-06T04:14:26;8.75;;;1.60;;
34952;SDS011;21164;54.378;10.202;2022-07-06T04:16:52;5.72;;;1.40;;
34952;SDS011;21164;54.378;10.202;2022-07-06T04:19:17;6.25;;;1.25;;
34952;SDS011;21164;54.378;10.202;2022-07-06T04:21:43;4.32;;;1.30;;
34952;SDS011;21164;54.378;10.202;2022-07-06T04:24:09;4.22;;;1.30;;
34952;SDS011;21164;54.378;10.202;2022-07-06T04:26:34;5.70;;;1.70;;
34952;SDS011;21164;54.378;10.202;2022-07-06T04:29:00;6.03;;;1.52;;
34952;SDS011;21164;54.378;10.202;2022-07-06T04:31:26;5.32;;;1.60;;
34952;SDS011;21164;54.378;10.202;2022-07-06T04:33:51;4.45;;;1.30;;
34952;SDS011;21164;54.378;10.202;2022-07-06T04:36:17;4.90;;;1.30;;
34952;SDS011;21164;54.378;10.202;2022-07-06T04:38:42;7.60;;;1.40;;
34952;SDS011;21164;54.378;10.202;2022-07-06T04:41:08;5.63;;;1.40;;
34952;SDS011;21164;54.378;10.202;2022-07-06T04:43:34;5.97;;;1.98;;
34952;SDS011;21164;54.378;10.202;2022-07-06T04:45:59;4.18;;;1.20;;
34952;SDS011;21164;54.378;10.202;2022-07-06T04:48:26;6.68;;;1.30;;
34952;SDS011;21164;54.378;10.202;2022-07-06T04:50:51;3.90;;;1.08;;
34952;SDS011;21164;54.378;10.202;2022-07-06T04:53:17;5.78;;;1.20;;
34952;SDS011;21164;54.378;10.202;2022-07-06T04:55:43;7.90;;;1.02;;
34952;SDS011;21164;54.378;10.202;2022-07-06T04:58:08;3.38;;;1.20;;
34952;SDS011;21164;54.378;10.202;2022-07-06T05:00:34;3.67;;;1.20;;
34952;SDS011;21164;54.378;10.202;2022-07-06T05:02:59;5.50;;;1.38;;
34952;SDS011;21164;54.378;10.202;2022-07-06T05:05:25;6.60;;;1.23;;
34952;SDS011;21164;54.378;10.202;2022-07-06T05:07:50;7.22;;;1.42;;
34952;SDS011;21164;54.378;10.202;2022-07-06T05:10:16;3.67;;;1.17;;
34952;SDS011;21164;54.378;10.202;2022-07-06T05:12:42;4.78;;;1.10;;
34952;SDS011;21164;54.378;10.202;2022-07-06T05:15:07;4.45;;;1.30;;
34952;SDS011;21164;54.378;10.202;2022-07-06T05:19:59;7.18;;;1.45;;
34952;SDS011;21164;54.378;10.202;2022-07-06T05:22:25;6.22;;;1.20;;
34952;SDS011;21164;54.378;10.202;2022-07-06T05:24:53;3.50;;;0.75;;
34952;SDS011;21164;54.378;10.202;2022-07-06T05:27:19;4.88;;;0.80;;
34952;SDS011;21164;54.378;10.202;2022-07-06T05:29:44;3.92;;;0.93;;
34952;SDS011;21164;54.378;10.202;2022-07-06T05:32:10;4.07;;;0.75;;
34952;SDS011;21164;54.378;10.202;2022-07-06T05:34:35;3.35;;;0.70;;
34952;SDS011;21164;54.378;10.202;2022-07-06T05:37:03;1.48;;;0.65;;
34952;SDS011;21164;54.378;10.202;2022-07-06T05:39:28;4.50;;;0.82;;
34952;SDS011;21164;54.378;10.202;2022-07-06T05:41:54;3.88;;;0.90;;
34952;SDS011;21164;54.378;10.202;2022-07-06T05:44:19;3.85;;;0.88;;
34952;SDS011;21164;54.378;10.202;2022-07-06T05:46:45;4.65;;;0.80;;
34952;SDS011;21164;54.378;10.202;2022-07-06T05:49:10;2.92;;;0.65;;
34952;SDS011;21164;54.378;10.202;2022-07-06T05:51:54;2.28;;;0.93;;
34952;SDS011;21164;54.378;10.202;2022-07-06T05:54:20;2.22;;;0.55;;
34952;SDS011;21164;54.378;10.202;2022-07-06T05:56:46;2.72;;;0.50;;
34952;SDS011;21164;54.378;10.202;2022-07-06T05:59:11;4.57;;;0.70;;
34952;SDS011;21164;54.378;10.202;2022-07-06T06:01:37;4.55;;;0.50;;
34952;SDS011;21164;54.378;10.202;2022-07-06T06:04:02;1.95;;;0.70;;
34952;SDS011;21164;54.378;10.202;2022-07-06T06:06:28;3.08;;;0.50;;
34952;SDS011;21164;54.378;10.202;2022-07-06T06:08:56;3.47;;;0.80;;
34952;SDS011;21164;54.378;10.202;2022-07-06T06:11:21;4.63;;;0.60;;
34952;SDS011;21164;54.378;10.202;2022-07-06T06:13:47;3.58;;;0.73;;
34952;SDS011;21164;54.378;10.202;2022-07-06T06:16:13;1.90;;;0.82;;
34952;SDS011;21164;54.378;10.202;2022-07-06T06:18:45;3.13;;;0.60;;
34952;SDS011;21164;54.378;10.202;2022-07-06T06:21:10;3.80;;;0.75;;
34952;SDS011;21164;54.378;10.202;2022-07-06T06:23:36;2.30;;;0.52;;
34952;SDS011;21164;54.378;10.202;2022-07-06T06:26:01;2.28;;;0.60;;
34952;SDS011;21164;54.378;10.202;2022-07-06T06:28:27;2.55;;;0.70;;
34952;SDS011;21164;54.378;10.202;2022-07-06T06:30:53;2.40;;;0.70;;
34952;SDS011;21164;54.378;10.202;2022-07-06T06:33:19;3.92;;;0.90;;
34952;SDS011;21164;54.378;10.202;2022-07-06T06:35:46;3.13;;;0.70;;
34952;SDS011;21164;54.378;10.202;2022-07-06T06:38:17;4.03;;;0.95;;
34952;SDS011;21164;54.378;10.202;2022-07-06T06:40:43;5.00;;;0.85;;
34952;SDS011;21164;54.378;10.202;2022-07-06T06:43:09;4.75;;;0.88;;
34952;SDS011;21164;54.378;10.202;2022-07-06T06:45:35;2.75;;;0.70;;
34952;SDS011;21164;54.378;10.202;2022-07-06T06:48:00;3.45;;;0.70;;
34952;SDS011;21164;54.378;10.202;2022-07-06T06:50:26;3.15;;;0.68;;
34952;SDS011;21164;54.378;10.202;2022-07-06T06:52:52;3.95;;;0.60;;
34952;SDS011;21164;54.378;10.202;2022-07-06T06:55:18;7.53;;;1.45;;
34952;SDS011;21164;54.378;10.202;2022-07-06T06:57:44;2.60;;;0.75;;
34952;SDS011;21164;54.378;10.202;2022-07-06T07:00:10;3.33;;;0.73;;
34952;SDS011;21164;54.378;10.202;2022-07-06T07:02:36;6.35;;;1.25;;
34952;SDS011;21164;54.378;10.202;2022-07-06T07:05:02;4.32;;;1.20;;
34952;SDS011;21164;54.378;10.202;2022-07-06T07:07:28;5.40;;;1.17;;
34952;SDS011;21164;54.378;10.202;2022-07-06T07:09:54;4.70;;;0.90;;
34952;SDS011;21164;54.378;10.202;2022-07-06T07:12:19;1.80;;;0.70;;
34952;SDS011;21164;54.378;10.202;2022-07-06T07:14:45;6.22;;;0.75;;
34952;SDS011;21164;54.378;10.202;2022-07-06T07:17:12;4.63;;;0.95;;
34952;SDS011;21164;54.378;10.202;2022-07-06T07:19:38;3.20;;;0.80;;
34952;SDS011;21164;54.378;10.202;2022-07-06T07:22:03;3.72;;;1.00;;
34952;SDS011;21164;54.378;10.202;2022-07-06T07:24:29;5.53;;;0.90;;
34952;SDS011;21164;54.378;10.202;2022-07-06T07:26:55;6.68;;;0.90;;
34952;SDS011;21164;54.378;10.202;2022-07-06T07:29:21;2.67;;;0.65;;
34952;SDS011;21164;54.378;10.202;2022-07-06T07:31:47;5.20;;;0.80;;
34952;SDS011;21164;54.378;10.202;2022-07-06T07:34:12;2.63;;;0.77;;
34952;SDS011;21164;54.378;10.202;2022-07-06T07:36:38;1.73;;;0.60;;
34952;SDS011;21164;54.378;10.202;2022-07-06T07:39:04;4.45;;;1.05;;
34952;SDS011;21164;54.378;10.202;2022-07-06T07:41:29;3.63;;;0.70;;
34952;SDS011;21164;54.378;10.202;2022-07-06T07:43:55;3.13;;;1.08;;
34952;SDS011;21164;54.378;10.202;2022-07-06T07:46:21;4.10;;;0.80;;
34952;SDS011;21164;54.378;10.202;2022-07-06T07:48:46;5.93;;;1.30;;
34952;SDS011;21164;54.378;10.202;2022-07-06T07:51:12;3.53;;;0.90;;
34952;SDS011;21164;54.378;10.202;2022-07-06T07:53:38;2.83;;;0.68;;
34952;SDS011;21164;54.378;10.202;2022-07-06T07:56:03;3.78;;;0.80;;
34952;SDS011;21164;54.378;10.202;2022-07-06T07:58:29;5.72;;;1.17;;
34952;SDS011;21164;54.378;10.202;2022-07-06T08:00:55;3.00;;;1.38;;
34952;SDS011;21164;54.378;10.202;2022-07-06T08:03:20;5.97;;;1.00;;
34952;SDS011;21164;54.378;10.202;2022-07-06T08:05:46;4.35;;;0.85;;
34952;SDS011;21164;54.378;10.202;2022-07-06T08:08:13;3.00;;;0.70;;
34952;SDS011;21164;54.378;10.202;2022-07-06T08:10:39;4.45;;;0.85;;
34952;SDS011;21164;54.378;10.202;2022-07-06T08:13:04;5.95;;;0.80;;
34952;SDS011;21164;54.378;10.202;2022-07-06T08:15:32;9.07;;;1.40;;
34952;SDS011;21164;54.378;10.202;2022-07-06T08:18:00;3.58;;;0.70;;
34952;SDS011;21164;54.378;10.202;2022-07-06T08:20:26;2.75;;;0.82;;
34952;SDS011;21164;54.378;10.202;2022-07-06T08:22:51;4.65;;;0.70;;
34952;SDS011;21164;54.378;10.202;2022-07-06T08:25:17;3.15;;;0.98;;
34952;SDS011;21164;54.378;10.202;2022-07-06T08:27:43;5.07;;;0.98;;
34952;SDS011;21164;54.378;10.202;2022-07-06T08:30:09;3.10;;;0.75;;
34952;SDS011;21164;54.378;10.202;2022-07-06T08:32:39;3.47;;;0.80;;
34952;SDS011;21164;54.378;10.202;2022-07-06T08:35:06;4.68;;;0.85;;
34952;SDS011;21164;54.378;10.202;2022-07-06T08:37:33;6.78;;;1.23;;
34952;SDS011;21164;54.378;10.202;2022-07-06T08:39:59;4.72;;;1.10;;
34952;SDS011;21164;54.378;10.202;2022-07-06T08:42:26;4.82;;;0.85;;
34952;SDS011;21164;54.378;10.202;2022-07-06T08:44:58;4.40;;;0.82;;
34952;SDS011;21164;54.378;10.202;2022-07-06T08:47:26;4.95;;;1.10;;
34952;SDS011;21164;54.378;10.202;2022-07-06T08:49:53;4.85;;;1.00;;
34952;SDS011;21164;54.378;10.202;2022-07-06T08:52:25;4.20;;;0.77;;
34952;SDS011;21164;54.378;10.202;2022-07-06T08:54:50;3.42;;;0.80;;
34952;SDS011;21164;54.378;10.202;2022-07-06T08:57:16;3.22;;;0.82;;
34952;SDS011;21164;54.378;10.202;2022-07-06T08:59:42;8.18;;;1.20;;
34952;SDS011;21164;54.378;10.202;2022-07-06T09:02:09;4.82;;;0.93;;
34952;SDS011;21164;54.378;10.202;2022-07-06T09:04:36;5.28;;;1.13;;
34952;SDS011;21164;54.378;10.202;2022-07-06T09:07:02;5.18;;;1.00;;
34952;SDS011;21164;54.378;10.202;2022-07-06T09:09:29;5.72;;;0.88;;
34952;SDS011;21164;54.378;10.202;2022-07-06T09:11:58;3.38;;;0.88;;
34952;SDS011;21164;54.378;10.202;2022-07-06T09:14:23;4.70;;;0.85;;
34952;SDS011;21164;54.378;10.202;2022-07-06T09:19:30;4.35;;;1.10;;
34952;SDS011;21164;54.378;10.202;2022-07-06T09:21:56;4.05;;;0.85;;
34952;SDS011;21164;54.378;10.202;2022-07-06T09:24:22;3.50;;;0.90;;
34952;SDS011;21164;54.378;10.202;2022-07-06T09:26:49;3.25;;;1.10;;
34952;SDS011;21164;54.378;10.202;2022-07-06T09:29:24;3.08;;;0.80;;
34952;SDS011;21164;54.378;10.202;2022-07-06T09:32:00;6.55;;;1.05;;
34952;SDS011;21164;54.378;10.202;2022-07-06T09:34:40;6.20;;;1.33;;
34952;SDS011;21164;54.378;10.202;2022-07-06T09:37:07;4.40;;;0.80;;
34952;SDS011;21164;54.378;10.202;2022-07-06T09:39:33;2.28;;;0.80;;
34952;SDS011;21164;54.378;10.202;2022-07-06T09:41:59;4.07;;;0.93;;
34952;SDS011;21164;54.378;10.202;2022-07-06T09:44:32;4.93;;;0.90;;
34952;SDS011;21164;54.378;10.202;2022-07-06T09:47:02;2.20;;;0.60;;
34952;SDS011;21164;54.378;10.202;2022-07-06T09:49:30;3.63;;;0.70;;
34952;SDS011;21164;54.378;10.202;2022-07-06T09:51:58;2.85;;;0.75;;
34952;SDS011;21164;54.378;10.202;2022-07-06T09:54:25;4.13;;;0.98;;
34952;SDS011;21164;54.378;10.202;2022-07-06T09:56:51;6.70;;;0.90;;
34952;SDS011;21164;54.378;10.202;2022-07-06T09:59:21;3.13;;;0.73;;
34952;SDS011;21164;54.378;10.202;2022-07-06T10:01:52;4.60;;;1.15;;
34952;SDS011;21164;54.378;10.202;2022-07-06T10:04:20;3.30;;;0.75;;
34952;SDS011;21164;54.378;10.202;2022-07-06T10:06:48;2.17;;;0.70;;
34952;SDS011;21164;54.378;10.202;2022-07-06T10:09:14;2.83;;;0.70;;
34952;SDS011;21164;54.378;10.202;2022-07-06T10:11:42;2.60;;;0.60;;
34952;SDS011;21164;54.378;10.202;2022-07-06T10:14:12;5.38;;;0.80;;
34952;SDS011;21164;54.378;10.202;2022-07-06T10:16:41;1.98;;;0.75;;
34952;SDS011;21164;54.378;10.202;2022-07-06T10:19:08;5.65;;;1.15;;
34952;SDS011;21164;54.378;10.202;2022-07-06T10:21:35;3.70;;;0.70;;
34952;SDS011;21164;54.378;10.202;2022-07-06T10:24:02;5.07;;;0.98;;
34952;SDS011;21164;54.378;10.202;2022-07-06T10:26:29;5.03;;;0.85;;
34952;SDS011;21164;54.378;10.202;2022-07-06T10:28:55;5.65;;;1.25;;
34952;SDS011;21164;54.378;10.202;2022-07-06T10:31:23;3.97;;;0.60;;
34952;SDS011;21164;54.378;10.202;2022-07-06T10:33:49;5.13;;;0.82;;
34952;SDS011;21164;54.378;10.202;2022-07-06T10:36:16;4.95;;;1.02;;
34952;SDS011;21164;54.378;10.202;2022-07-06T10:38:42;5.55;;;1.00;;
34952;SDS011;21164;54.378;10.202;2022-07-06T10:41:14;2.70;;;0.70;;
34952;SDS011;21164;54.378;10.202;2022-07-06T10:43:43;2.28;;;0.50;;
34952;SDS011;21164;54.378;10.202;2022-07-06T10:46:11;2.35;;;0.57;;
34952;SDS011;21164;54.378;10.202;2022-07-06T10:48:42;5.07;;;0.70;;
34952;SDS011;21164;54.378;10.202;2022-07-06T10:51:12;2.33;;;0.60;;
34952;SDS011;21164;54.378;10.202;2022-07-06T10:53:49;6.43;;;1.63;;
34952;SDS011;21164;54.378;10.202;2022-07-06T10:56:36;4.25;;;0.68;;
34952;SDS011;21164;54.378;10.202;2022-07-06T11:04:48;3.88;;;0.68;;
34952;SDS011;21164;54.378;10.202;2022-07-06T11:07:15;4.20;;;0.88;;
34952;SDS011;21164;54.378;10.202;2022-07-06T11:09:55;6.32;;;1.27;;
34952;SDS011;21164;54.378;10.202;2022-07-06T11:12:22;3.97;;;0.80;;
34952;SDS011;21164;54.378;10.202;2022-07-06T11:14:48;4.38;;;0.90;;
34952;SDS011;21164;54.378;10.202;2022-07-06T11:17:15;4.72;;;0.60;;
34952;SDS011;21164;54.378;10.202;2022-07-06T11:19:48;5.50;;;1.33;;
34952;SDS011;21164;54.378;10.202;2022-07-06T11:22:33;3.63;;;0.45;;
34952;SDS011;21164;54.378;10.202;2022-07-06T11:25:01;4.07;;;0.80;;
34952;SDS011;21164;54.378;10.202;2022-07-06T11:27:28;2.70;;;0.50;;
34952;SDS011;21164;54.378;10.202;2022-07-06T11:32:22;5.15;;;0.88;;
34952;SDS011;21164;54.378;10.202;2022-07-06T11:34:50;5.45;;;0.90;;
34952;SDS011;21164;54.378;10.202;2022-07-06T11:37:15;5.15;;;0.73;;
34952;SDS011;21164;54.378;10.202;2022-07-06T11:39:43;3.72;;;0.73;;
34952;SDS011;21164;54.378;10.202;2022-07-06T11:42:10;1.85;;;0.60;;
34952;SDS011;21164;54.378;10.202;2022-07-06T11:44:40;4.57;;;0.70;;
34952;SDS011;21164;54.378;10.202;2022-07-06T11:47:06;2.13;;;0.50;;
34952;SDS011;21164;54.378;10.202;2022-07-06T11:49:34;3.78;;;0.60;;
34952;SDS011;21164;54.378;10.202;2022-07-06T11:52:05;2.30;;;0.55;;
34952;SDS011;21164;54.378;10.202;2022-07-06T11:54:35;3.20;;;0.73;;
34952;SDS011;21164;54.378;10.202;2022-07-06T11:57:01;4.10;;;0.68;;
34952;SDS011;21164;54.378;10.202;2022-07-06T12:01:59;1.67;;;0.38;;
34952;SDS011;21164;54.378;10.202;2022-07-06T12:04:39;2.50;;;0.52;;
34952;SDS011;21164;54.378;10.202;2022-07-06T12:07:06;2.03;;;0.52;;
34952;SDS011;21164;54.378;10.202;2022-07-06T12:09:35;2.47;;;0.60;;
34952;SDS011;21164;54.378;10.202;2022-07-06T12:12:02;2.42;;;0.50;;
34952;SDS011;21164;54.378;10.202;2022-07-06T12:14:29;3.30;;;0.70;;
34952;SDS011;21164;54.378;10.202;2022-07-06T12:16:56;3.42;;;0.70;;
34952;SDS011;21164;54.378;10.202;2022-07-06T12:19:27;3.63;;;0.70;;
34952;SDS011;21164;54.378;10.202;2022-07-06T12:21:52;3.83;;;0.70;;
34952;SDS011;21164;54.378;10.202;2022-07-06T12:24:19;2.33;;;0.55;;
34952;SDS011;21164;54.378;10.202;2022-07-06T12:26:46;5.45;;;0.68;;
34952;SDS011;21164;54.378;10.202;2022-07-06T12:29:12;5.75;;;0.75;;
34952;SDS011;21164;54.378;10.202;2022-07-06T12:31:42;3.20;;;0.75;;
34952;SDS011;21164;54.378;10.202;2022-07-06T12:34:19;3.50;;;0.60;;
34952;SDS011;21164;54.378;10.202;2022-07-06T12:36:47;1.50;;;0.40;;
34952;SDS011;21164;54.378;10.202;2022-07-06T12:39:15;3.72;;;0.43;;
34952;SDS011;21164;54.378;10.202;2022-07-06T12:41:46;2.13;;;0.45;;
34952;SDS011;21164;54.378;10.202;2022-07-06T12:44:12;2.35;;;0.50;;
34952;SDS011;21164;54.378;10.202;2022-07-06T12:46:39;3.83;;;0.32;;
34952;SDS011;21164;54.378;10.202;2022-07-06T12:49:22;2.20;;;0.57;;
34952;SDS011;21164;54.378;10.202;2022-07-06T12:52:01;2.45;;;0.47;;
34952;SDS011;21164;54.378;10.202;2022-07-06T12:54:34;1.48;;;0.20;;
34952;SDS011;21164;54.378;10.202;2022-07-06T12:59:31;2.65;;;0.52;;
34952;SDS011;21164;54.378;10.202;2022-07-06T13:01:59;2.30;;;0.30;;
34952;SDS011;21164;54.378;10.202;2022-07-06T13:04:26;1.40;;;0.40;;
34952;SDS011;21164;54.378;10.202;2022-07-06T13:06:53;6.07;;;0.57;;
34952;SDS011;21164;54.378;10.202;2022-07-06T13:09:19;3.50;;;0.75;;
34952;SDS011;21164;54.378;10.202;2022-07-06T13:11:46;0.90;;;0.40;;
34952;SDS011;21164;54.378;10.202;2022-07-06T13:14:13;2.58;;;0.40;;
34952;SDS011;21164;54.378;10.202;2022-07-06T13:16:40;2.70;;;0.50;;
34952;SDS011;21164;54.378;10.202;2022-07-06T13:19:06;1.83;;;0.40;;
34952;SDS011;21164;54.378;10.202;2022-07-06T13:21:32;2.50;;;0.28;;
34952;SDS011;21164;54.378;10.202;2022-07-06T13:23:57;1.95;;;0.40;;
34952;SDS011;21164;54.378;10.202;2022-07-06T13:26:23;2.42;;;0.45;;
34952;SDS011;21164;54.378;10.202;2022-07-06T13:28:49;4.63;;;0.55;;
34952;SDS011;21164;54.378;10.202;2022-07-06T13:31:14;4.07;;;0.60;;
34952;SDS011;21164;54.378;10.202;2022-07-06T13:33:40;1.02;;;0.28;;
34952;SDS011;21164;54.378;10.202;2022-07-06T13:36:05;2.45;;;0.60;;
34952;SDS011;21164;54.378;10.202;2022-07-06T13:40:56;0.85;;;0.20;;
34952;SDS011;21164;54.378;10.202;2022-07-06T13:43:22;3.00;;;0.65;;
34952;SDS011;21164;54.378;10.202;2022-07-06T13:45:48;4.70;;;0.70;;
34952;SDS011;21164;54.378;10.202;2022-07-06T13:48:14;3.17;;;0.55;;
34952;SDS011;21164;54.378;10.202;2022-07-06T13:50:39;2.58;;;0.32;;
34952;SDS011;21164;54.378;10.202;2022-07-06T13:53:05;2.85;;;0.40;;
34952;SDS011;21164;54.378;10.202;2022-07-06T13:55:31;2.15;;;0.45;;
34952;SDS011;21164;54.378;10.202;2022-07-06T13:58:00;4.55;;;0.50;;
34952;SDS011;21164;54.378;10.202;2022-07-06T14:00:25;2.78;;;0.50;;
34952;SDS011;21164;54.378;10.202;2022-07-06T14:02:51;2.80;;;0.60;;
34952;SDS011;21164;54.378;10.202;2022-07-06T14:05:17;2.97;;;0.38;;
34952;SDS011;21164;54.378;10.202;2022-07-06T14:07:42;3.25;;;0.70;;
34952;SDS011;21164;54.378;10.202;2022-07-06T14:10:08;4.00;;;0.45;;
34952;SDS011;21164;54.378;10.202;2022-07-06T14:12:34;2.08;;;0.40;;
34952;SDS011;21164;54.378;10.202;2022-07-06T14:17:25;3.47;;;0.50;;
34952;SDS011;21164;54.378;10.202;2022-07-06T14:19:51;3.65;;;0.50;;
34952;SDS011;21164;54.378;10.202;2022-07-06T14:22:16;3.88;;;0.35;;
34952;SDS011;21164;54.378;10.202;2022-07-06T14:24:42;2.15;;;0.50;;
34952;SDS011;21164;54.378;10.202;2022-07-06T14:27:08;6.25;;;1.00;;
34952;SDS011;21164;54.378;10.202;2022-07-06T14:29:33;3.80;;;0.88;;
34952;SDS011;21164;54.378;10.202;2022-07-06T14:31:59;2.92;;;0.50;;
34952;SDS011;21164;54.378;10.202;2022-07-06T14:34:25;3.83;;;0.70;;
34952;SDS011;21164;54.378;10.202;2022-07-06T14:36:51;2.38;;;0.70;;
34952;SDS011;21164;54.378;10.202;2022-07-06T14:41:42;1.60;;;0.30;;
34952;SDS011;21164;54.378;10.202;2022-07-06T14:44:08;3.15;;;0.50;;
34952;SDS011;21164;54.378;10.202;2022-07-06T14:49:02;2.58;;;0.40;;
34952;SDS011;21164;54.378;10.202;2022-07-06T14:51:27;2.90;;;0.50;;
34952;SDS011;21164;54.378;10.202;2022-07-06T14:53:53;3.10;;;0.82;;
34952;SDS011;21164;54.378;10.202;2022-07-06T14:56:21;3.78;;;0.43;;
34952;SDS011;21164;54.378;10.202;2022-07-06T14:58:47;3.17;;;0.50;;
34952;SDS011;21164;54.378;10.202;2022-07-06T15:03:38;5.32;;;0.70;;
34952;SDS011;21164;54.378;10.202;2022-07-06T15:08:29;2.13;;;0.40;;
34952;SDS011;21164;54.378;10.202;2022-07-06T15:10:55;2.80;;;0.50;;